sensor_id;sensor_type;location;lat;lon;timestamp;pressure;altitude;pressure_sealevel;temperature;humidity
5298;BME280;14738;42.668;23.250;2023-08-24T00:00:37;48433.97;;;-141.90;50.97
5298;BME280;14738;42.668;23.250;2023-08-24T00:03:03;48398.25;;;-141.90;50.59
5298;BME280;14738;42.668;23.250;2023-08-24T00:05:29;48410.16;;;-141.90;50.32
5298;BME280;14738;42.668;23.250;2023-08-24T00:07:57;48414.13;;;-141.90;50.58
5298;BME280;14738;42.668;23.250;2023-08-24T00:10:23;48394.28;;;-141.90;50.76
5298;BME280;14738;42.668;23.250;2023-08-24T00:12:48;48424.06;;;-141.90;50.69
5298;BME280;14738;42.668;23.250;2023-08-24T00:15:13;48404.19;;;-141.90;50.76
5298;BME280;14738;42.668;23.250;2023-08-24T00:17:39;48422.06;;;-141.90;51.11
5298;BME280;14738;42.668;23.250;2023-08-24T00:20:05;48404.19;;;-141.90;51.12
5298;BME280;14738;42.668;23.250;2023-08-24T00:22:35;48430.00;;;-141.90;51.41
5298;BME280;14738;42.668;23.250;2023-08-24T00:25:01;48422.06;;;-141.90;51.35
5298;BME280;14738;42.668;23.250;2023-08-24T00:27:26;48410.16;;;-141.90;51.67
5298;BME280;14738;42.668;23.250;2023-08-24T00:29:51;48400.22;;;-141.90;52.32
5298;BME280;14738;42.668;23.250;2023-08-24T00:32:17;48430.00;;;-141.90;51.90
5298;BME280;14738;42.668;23.250;2023-08-24T00:34:42;48378.38;;;-141.90;51.68
5298;BME280;14738;42.668;23.250;2023-08-24T00:37:08;48382.34;;;-141.90;51.55
5298;BME280;14738;42.668;23.250;2023-08-24T00:39:33;48422.06;;;-141.90;51.38
5298;BME280;14738;42.668;23.250;2023-08-24T00:41:59;48426.03;;;-141.90;52.31
5298;BME280;14738;42.668;23.250;2023-08-24T00:44:24;48398.25;;;-141.90;52.21
5298;BME280;14738;42.668;23.250;2023-08-24T00:46:49;48388.31;;;-141.90;53.12
5298;BME280;14738;42.668;23.250;2023-08-24T00:49:15;48400.22;;;-141.90;53.03
5298;BME280;14738;42.668;23.250;2023-08-24T00:51:40;48402.22;;;-141.90;53.01
5298;BME280;14738;42.668;23.250;2023-08-24T00:54:06;48418.09;;;-141.90;52.29
5298;BME280;14738;42.668;23.250;2023-08-24T00:56:32;48424.06;;;-141.90;52.73
5298;BME280;14738;42.668;23.250;2023-08-24T00:58:57;48400.22;;;-141.90;53.10
5298;BME280;14738;42.668;23.250;2023-08-24T01:01:23;48406.19;;;-141.90;53.45
5298;BME280;14738;42.668;23.250;2023-08-24T01:03:49;48428.03;;;-141.90;52.70
5298;BME280;14738;42.668;23.250;2023-08-24T01:06:15;48414.13;;;-141.90;52.58
5298;BME280;14738;42.668;23.250;2023-08-24T01:08:40;48445.88;;;-141.90;51.35
5298;BME280;14738;42.668;23.250;2023-08-24T01:11:11;48414.13;;;-141.90;51.92
5298;BME280;14738;42.668;23.250;2023-08-24T01:17:02;48414.13;;;-141.90;53.22
5298;BME280;14738;42.668;23.250;2023-08-24T01:19:41;48390.31;;;-141.90;53.73
5298;BME280;14738;42.668;23.250;2023-08-24T01:22:58;48396.25;;;-141.90;54.08
5298;BME280;14738;42.668;23.250;2023-08-24T01:25:16;48414.13;;;-141.90;53.57
5298;BME280;14738;42.668;23.250;2023-08-24T01:27:43;48416.09;;;-141.90;53.43
5298;BME280;14738;42.668;23.250;2023-08-24T01:30:09;48410.16;;;-141.90;52.85
5298;BME280;14738;42.668;23.250;2023-08-24T01:32:35;48433.97;;;-141.90;52.58
5298;BME280;14738;42.668;23.250;2023-08-24T01:35:04;48382.34;;;-141.90;53.29
5298;BME280;14738;42.668;23.250;2023-08-24T01:37:30;48378.38;;;-141.90;53.58
5298;BME280;14738;42.668;23.250;2023-08-24T01:42:59;48410.16;;;-141.90;54.01
5298;BME280;14738;42.668;23.250;2023-08-24T01:45:29;48402.22;;;-141.90;53.69
5298;BME280;14738;42.668;23.250;2023-08-24T01:47:57;48422.06;;;-141.90;53.80
5298;BME280;14738;42.668;23.250;2023-08-24T01:50:24;48406.19;;;-141.90;53.74
5298;BME280;14738;42.668;23.250;2023-08-24T01:52:50;48398.25;;;-141.90;53.53
5298;BME280;14738;42.668;23.250;2023-08-24T01:55:19;48402.22;;;-141.90;54.25
5298;BME280;14738;42.668;23.250;2023-08-24T01:57:44;48392.28;;;-141.90;54.60
5298;BME280;14738;42.668;23.250;2023-08-24T02:00:10;48392.28;;;-141.90;55.03
5298;BME280;14738;42.668;23.250;2023-08-24T02:02:35;48394.28;;;-141.90;55.42
5298;BME280;14738;42.668;23.250;2023-08-24T02:05:04;48406.19;;;-141.90;55.78
5298;BME280;14738;42.668;23.250;2023-08-24T02:07:29;48412.13;;;-141.90;55.21
5298;BME280;14738;42.668;23.250;2023-08-24T02:09:55;48404.19;;;-141.90;55.09
5298;BME280;14738;42.668;23.250;2023-08-24T02:12:20;48378.38;;;-141.90;55.36
5298;BME280;14738;42.668;23.250;2023-08-24T02:14:46;48390.31;;;-141.90;54.64
5298;BME280;14738;42.668;23.250;2023-08-24T02:17:11;48398.25;;;-141.90;54.49
5298;BME280;14738;42.668;23.250;2023-08-24T02:19:36;48402.22;;;-141.90;54.85
5298;BME280;14738;42.668;23.250;2023-08-24T02:22:02;48398.25;;;-141.90;54.78
5298;BME280;14738;42.668;23.250;2023-08-24T02:24:27;48396.25;;;-141.90;55.67
5298;BME280;14738;42.668;23.250;2023-08-24T02:26:53;48398.25;;;-141.90;55.72
5298;BME280;14738;42.668;23.250;2023-08-24T02:29:18;48400.22;;;-141.90;55.48
5298;BME280;14738;42.668;23.250;2023-08-24T02:31:43;48400.22;;;-141.90;55.26
5298;BME280;14738;42.668;23.250;2023-08-24T02:34:09;48396.25;;;-141.90;55.33
5298;BME280;14738;42.668;23.250;2023-08-24T02:36:35;48394.28;;;-141.90;55.87
5298;BME280;14738;42.668;23.250;2023-08-24T02:39:00;48402.22;;;-141.90;55.75
5298;BME280;14738;42.668;23.250;2023-08-24T02:41:26;48390.31;;;-141.90;56.03
5298;BME280;14738;42.668;23.250;2023-08-24T02:43:52;48396.25;;;-141.90;56.48
5298;BME280;14738;42.668;23.250;2023-08-24T02:46:17;48382.34;;;-141.90;56.24
5298;BME280;14738;42.668;23.250;2023-08-24T02:48:44;48382.34;;;-141.90;56.50
5298;BME280;14738;42.668;23.250;2023-08-24T02:51:10;48396.25;;;-141.90;56.44
5298;BME280;14738;42.668;23.250;2023-08-24T02:53:35;48398.25;;;-141.90;56.42
5298;BME280;14738;42.668;23.250;2023-08-24T02:56:02;48404.19;;;-141.90;56.20
5298;BME280;14738;42.668;23.250;2023-08-24T02:58:27;48398.25;;;-141.90;55.61
5298;BME280;14738;42.668;23.250;2023-08-24T03:00:52;48426.03;;;-141.90;55.82
5298;BME280;14738;42.668;23.250;2023-08-24T03:03:18;48418.09;;;-141.90;55.97
5298;BME280;14738;42.668;23.250;2023-08-24T03:05:59;48400.22;;;-141.90;55.80
5298;BME280;14738;42.668;23.250;2023-08-24T03:08:25;48394.28;;;-141.90;56.56
5298;BME280;14738;42.668;23.250;2023-08-24T03:10:51;48394.28;;;-141.90;56.53
5298;BME280;14738;42.668;23.250;2023-08-24T03:13:17;48441.91;;;-141.90;56.25
5298;BME280;14738;42.668;23.250;2023-08-24T03:15:42;48386.34;;;-141.90;57.14
5298;BME280;14738;42.668;23.250;2023-08-24T03:18:11;48398.25;;;-141.90;56.49
5298;BME280;14738;42.668;23.250;2023-08-24T03:20:36;48386.34;;;-141.90;57.01
5298;BME280;14738;42.668;23.250;2023-08-24T03:23:02;48390.31;;;-141.90;57.16
5298;BME280;14738;42.668;23.250;2023-08-24T03:25:28;48386.34;;;-141.90;57.68
5298;BME280;14738;42.668;23.250;2023-08-24T03:27:53;48360.53;;;-141.90;57.02
5298;BME280;14738;42.668;23.250;2023-08-24T03:30:20;48390.31;;;-141.90;56.41
5298;BME280;14738;42.668;23.250;2023-08-24T03:32:46;48404.19;;;-141.90;56.29
5298;BME280;14738;42.668;23.250;2023-08-24T03:35:11;48406.19;;;-141.90;56.78
5298;BME280;14738;42.668;23.250;2023-08-24T03:37:36;48398.25;;;-141.90;57.27
5298;BME280;14738;42.668;23.250;2023-08-24T03:40:03;48396.25;;;-141.90;57.06
5298;BME280;14738;42.668;23.250;2023-08-24T03:42:30;48410.16;;;-141.90;56.71
5298;BME280;14738;42.668;23.250;2023-08-24T03:44:55;48404.19;;;-141.90;56.44
5298;BME280;14738;42.668;23.250;2023-08-24T03:47:21;48412.13;;;-141.90;56.76
5298;BME280;14738;42.668;23.250;2023-08-24T03:49:46;48380.38;;;-141.90;56.69
5298;BME280;14738;42.668;23.250;2023-08-24T03:52:12;48404.19;;;-141.90;56.11
5298;BME280;14738;42.668;23.250;2023-08-24T03:54:37;48394.28;;;-141.90;55.66
5298;BME280;14738;42.668;23.250;2023-08-24T03:57:02;48394.28;;;-141.90;56.80
5298;BME280;14738;42.668;23.250;2023-08-24T03:59:28;48366.47;;;-141.90;57.06
5298;BME280;14738;42.668;23.250;2023-08-24T04:01:53;48414.13;;;-141.90;57.41
5298;BME280;14738;42.668;23.250;2023-08-24T04:04:19;48396.25;;;-141.90;57.38
5298;BME280;14738;42.668;23.250;2023-08-24T04:06:45;48396.25;;;-141.90;57.48
5298;BME280;14738;42.668;23.250;2023-08-24T04:09:10;48400.22;;;-141.90;57.11
5298;BME280;14738;42.668;23.250;2023-08-24T04:11:35;48404.19;;;-141.90;56.80
5298;BME280;14738;42.668;23.250;2023-08-24T04:14:01;48430.00;;;-141.90;57.00
5298;BME280;14738;42.668;23.250;2023-08-24T04:16:26;48398.25;;;-141.90;56.88
5298;BME280;14738;42.668;23.250;2023-08-24T04:18:52;48408.16;;;-141.90;56.53
5298;BME280;14738;42.668;23.250;2023-08-24T04:21:17;48412.13;;;-141.90;56.14
5298;BME280;14738;42.668;23.250;2023-08-24T04:23:42;48428.03;;;-141.90;56.09
5298;BME280;14738;42.668;23.250;2023-08-24T04:26:13;48406.19;;;-141.90;56.43
5298;BME280;14738;42.668;23.250;2023-08-24T04:28:39;48400.22;;;-141.90;56.17
5298;BME280;14738;42.668;23.250;2023-08-24T04:31:04;48414.13;;;-141.90;55.72
5298;BME280;14738;42.668;23.250;2023-08-24T04:33:29;48414.13;;;-141.90;55.70
5298;BME280;14738;42.668;23.250;2023-08-24T04:35:55;48433.97;;;-141.90;55.26
5298;BME280;14738;42.668;23.250;2023-08-24T04:38:20;48430.00;;;-141.90;53.79
5298;BME280;14738;42.668;23.250;2023-08-24T04:40:50;48453.81;;;-141.90;52.12
5298;BME280;14738;42.668;23.250;2023-08-24T04:43:17;48451.84;;;-141.90;50.88
5298;BME280;14738;42.668;23.250;2023-08-24T04:45:42;48453.81;;;-141.90;51.08
5298;BME280;14738;42.668;23.250;2023-08-24T04:48:08;48426.03;;;-141.90;52.13
5298;BME280;14738;42.668;23.250;2023-08-24T04:50:33;48441.91;;;-141.90;51.83
5298;BME280;14738;42.668;23.250;2023-08-24T04:52:58;48467.72;;;-141.90;51.75
5298;BME280;14738;42.668;23.250;2023-08-24T04:55:24;48469.72;;;-141.90;52.63
5298;BME280;14738;42.668;23.250;2023-08-24T04:57:49;48443.91;;;-141.90;52.95
5298;BME280;14738;42.668;23.250;2023-08-24T05:00:15;48455.81;;;-141.90;52.69
5298;BME280;14738;42.668;23.250;2023-08-24T05:02:42;48475.66;;;-141.90;52.47
5298;BME280;14738;42.668;23.250;2023-08-24T05:05:08;48451.84;;;-141.90;52.24
5298;BME280;14738;42.668;23.250;2023-08-24T05:07:39;48453.81;;;-141.90;51.22
5298;BME280;14738;42.668;23.250;2023-08-24T05:10:05;48463.75;;;-141.90;49.97
5298;BME280;14738;42.668;23.250;2023-08-24T05:12:31;48493.53;;;-141.90;49.56
5298;BME280;14738;42.668;23.250;2023-08-24T05:14:59;48439.94;;;-141.90;51.08
5298;BME280;14738;42.668;23.250;2023-08-24T05:17:24;48477.66;;;-141.90;50.67
5298;BME280;14738;42.668;23.250;2023-08-24T05:19:53;48469.72;;;-141.90;50.15
5298;BME280;14738;42.668;23.250;2023-08-24T05:22:19;48481.63;;;-141.90;49.52
5298;BME280;14738;42.668;23.250;2023-08-24T05:24:44;48445.88;;;-141.90;49.54
5298;BME280;14738;42.668;23.250;2023-08-24T05:27:10;48457.81;;;-141.90;49.27
5298;BME280;14738;42.668;23.250;2023-08-24T05:29:35;48479.63;;;-141.90;48.00
5298;BME280;14738;42.668;23.250;2023-08-24T05:32:00;48527.28;;;-141.90;47.69
5298;BME280;14738;42.668;23.250;2023-08-24T05:34:26;48501.47;;;-141.90;47.84
5298;BME280;14738;42.668;23.250;2023-08-24T05:36:51;48493.53;;;-141.90;48.92
5298;BME280;14738;42.668;23.250;2023-08-24T05:39:16;48509.41;;;-141.90;47.65
5298;BME280;14738;42.668;23.250;2023-08-24T05:41:42;48497.50;;;-141.90;47.11
5298;BME280;14738;42.668;23.250;2023-08-24T05:44:07;48521.34;;;-141.90;46.84
5298;BME280;14738;42.668;23.250;2023-08-24T05:46:33;48521.34;;;-141.90;45.90
5298;BME280;14738;42.668;23.250;2023-08-24T05:48:58;48515.38;;;-141.90;45.88
5298;BME280;14738;42.668;23.250;2023-08-24T05:51:27;48495.53;;;-141.90;45.47
5298;BME280;14738;42.668;23.250;2023-08-24T05:53:53;48517.34;;;-141.90;45.59
5298;BME280;14738;42.668;23.250;2023-08-24T05:56:24;48523.31;;;-141.90;45.52
5298;BME280;14738;42.668;23.250;2023-08-24T05:58:50;48551.09;;;-141.90;46.08
5298;BME280;14738;42.668;23.250;2023-08-24T06:01:15;48531.25;;;-141.90;43.72
5298;BME280;14738;42.668;23.250;2023-08-24T06:03:40;48545.16;;;-141.90;43.60
5298;BME280;14738;42.668;23.250;2023-08-24T06:06:06;48596.78;;;-141.90;41.94
5298;BME280;14738;42.668;23.250;2023-08-24T06:08:33;48588.84;;;-141.90;42.32
5298;BME280;14738;42.668;23.250;2023-08-24T06:10:58;48594.78;;;-141.90;41.78
5298;BME280;14738;42.668;23.250;2023-08-24T06:13:24;48636.47;;;-141.90;40.45
5298;BME280;14738;42.668;23.250;2023-08-24T06:15:49;48654.34;;;-141.90;39.45
5298;BME280;14738;42.668;23.250;2023-08-24T06:18:15;48648.38;;;-141.90;39.60
5298;BME280;14738;42.668;23.250;2023-08-24T06:20:41;48652.38;;;-141.90;38.97
5298;BME280;14738;42.668;23.250;2023-08-24T06:23:06;48654.34;;;-141.90;38.80
5298;BME280;14738;42.668;23.250;2023-08-24T06:25:33;48747.66;;;-141.90;36.68
5298;BME280;14738;42.668;23.250;2023-08-24T06:27:59;48821.13;;;-141.90;33.88
5298;BME280;14738;42.668;23.250;2023-08-24T06:30:25;48878.69;;;-141.90;33.47
5298;BME280;14738;42.668;23.250;2023-08-24T06:32:50;48922.38;;;-141.90;33.68
5298;BME280;14738;42.668;23.250;2023-08-24T06:35:16;48904.50;;;-141.90;32.40
5298;BME280;14738;42.668;23.250;2023-08-24T06:37:42;48882.66;;;-141.90;32.73
5298;BME280;14738;42.668;23.250;2023-08-24T06:40:08;49019.66;;;-141.90;30.32
5298;BME280;14738;42.668;23.250;2023-08-24T06:42:34;48972.00;;;-141.90;30.89
5298;BME280;14738;42.668;23.250;2023-08-24T06:44:59;49051.44;;;-141.90;29.76
5298;BME280;14738;42.668;23.250;2023-08-24T06:47:24;49013.72;;;-141.90;30.17
5298;BME280;14738;42.668;23.250;2023-08-24T06:49:50;48970.03;;;-141.90;30.04
5298;BME280;14738;42.668;23.250;2023-08-24T06:52:16;48966.06;;;-141.90;30.32
5298;BME280;14738;42.668;23.250;2023-08-24T06:54:41;49005.78;;;-141.90;30.02
5298;BME280;14738;42.668;23.250;2023-08-24T06:57:06;49033.56;;;-141.90;30.01
5298;BME280;14738;42.668;23.250;2023-08-24T06:59:32;48970.03;;;-141.90;31.11
5298;BME280;14738;42.668;23.250;2023-08-24T07:01:57;48974.00;;;-141.90;30.96
5298;BME280;14738;42.668;23.250;2023-08-24T07:04:23;48966.06;;;-141.90;29.89
5298;BME280;14738;42.668;23.250;2023-08-24T07:06:48;48968.03;;;-141.90;29.79
5298;BME280;14738;42.668;23.250;2023-08-24T07:09:14;48938.25;;;-141.90;29.75
5298;BME280;14738;42.668;23.250;2023-08-24T07:11:40;48942.22;;;-141.90;29.96
5298;BME280;14738;42.668;23.250;2023-08-24T07:14:06;48880.69;;;-141.90;31.14
5298;BME280;14738;42.668;23.250;2023-08-24T07:16:31;48934.28;;;-141.90;30.22
5298;BME280;14738;42.668;23.250;2023-08-24T07:18:56;48940.25;;;-141.90;31.45
5298;BME280;14738;42.668;23.250;2023-08-24T07:21:22;48938.25;;;-141.90;31.90
5298;BME280;14738;42.668;23.250;2023-08-24T07:23:47;48968.03;;;-141.90;30.43
5298;BME280;14738;42.668;23.250;2023-08-24T07:26:13;48938.25;;;-141.90;30.08
5298;BME280;14738;42.668;23.250;2023-08-24T07:28:38;48928.34;;;-141.90;30.24
5298;BME280;14738;42.668;23.250;2023-08-24T07:31:10;48896.56;;;-141.90;30.70
5298;BME280;14738;42.668;23.250;2023-08-24T07:33:37;48870.75;;;-141.90;31.01
5298;BME280;14738;42.668;23.250;2023-08-24T07:36:04;48868.78;;;-141.90;31.19
5298;BME280;14738;42.668;23.250;2023-08-24T07:38:30;48876.72;;;-141.90;31.15
5298;BME280;14738;42.668;23.250;2023-08-24T07:40:57;48825.09;;;-141.90;31.90
5298;BME280;14738;42.668;23.250;2023-08-24T07:43:22;48833.03;;;-141.90;32.83
5298;BME280;14738;42.668;23.250;2023-08-24T07:45:48;48858.84;;;-141.90;32.13
5298;BME280;14738;42.668;23.250;2023-08-24T07:48:13;48854.88;;;-141.90;31.14
5298;BME280;14738;42.668;23.250;2023-08-24T07:50:39;48850.91;;;-141.90;31.02
5298;BME280;14738;42.668;23.250;2023-08-24T07:53:04;48888.63;;;-141.90;31.17
5298;BME280;14738;42.668;23.250;2023-08-24T07:55:30;48858.84;;;-141.90;31.42
5298;BME280;14738;42.668;23.250;2023-08-24T07:57:55;48862.81;;;-141.90;31.54
5298;BME280;14738;42.668;23.250;2023-08-24T08:00:21;48886.63;;;-141.90;30.48
5298;BME280;14738;42.668;23.250;2023-08-24T08:02:49;48874.72;;;-141.90;29.94
5298;BME280;14738;42.668;23.250;2023-08-24T08:05:15;48874.72;;;-141.90;31.02
5298;BME280;14738;42.668;23.250;2023-08-24T08:07:41;48904.50;;;-141.90;30.71
5298;BME280;14738;42.668;23.250;2023-08-24T08:10:07;48916.41;;;-141.90;28.86
5298;BME280;14738;42.668;23.250;2023-08-24T08:12:33;48918.41;;;-141.90;29.74
5298;BME280;14738;42.668;23.250;2023-08-24T08:14:59;48896.56;;;-141.90;29.13
5298;BME280;14738;42.668;23.250;2023-08-24T08:17:24;48930.31;;;-141.90;28.78
5298;BME280;14738;42.668;23.250;2023-08-24T08:19:54;48930.31;;;-141.90;29.01
5298;BME280;14738;42.668;23.250;2023-08-24T08:22:20;48944.22;;;-141.90;29.44
5298;BME280;14738;42.668;23.250;2023-08-24T08:24:45;48934.28;;;-141.90;28.81
5298;BME280;14738;42.668;23.250;2023-08-24T08:27:11;48952.16;;;-141.90;28.21
5298;BME280;14738;42.668;23.250;2023-08-24T08:29:36;48886.63;;;-141.90;28.08
5298;BME280;14738;42.668;23.250;2023-08-24T08:32:01;48924.38;;;-141.90;29.08
5298;BME280;14738;42.668;23.250;2023-08-24T08:34:27;48930.31;;;-141.90;28.34
5298;BME280;14738;42.668;23.250;2023-08-24T08:36:52;48979.97;;;-141.90;28.47
5298;BME280;14738;42.668;23.250;2023-08-24T08:39:18;49031.59;;;-141.90;27.68
5298;BME280;14738;42.668;23.250;2023-08-24T08:41:43;48966.06;;;-141.90;28.11
5298;BME280;14738;42.668;23.250;2023-08-24T08:44:13;48977.97;;;-141.90;27.54
5298;BME280;14738;42.668;23.250;2023-08-24T08:46:40;48974.00;;;-141.90;27.73
5298;BME280;14738;42.668;23.250;2023-08-24T08:49:06;48944.22;;;-141.90;27.76
5298;BME280;14738;42.668;23.250;2023-08-24T08:51:35;48944.22;;;-141.90;27.68
5298;BME280;14738;42.668;23.250;2023-08-24T08:54:01;48974.00;;;-141.90;28.13
5298;BME280;14738;42.668;23.250;2023-08-24T08:56:29;48974.00;;;-141.90;27.54
5298;BME280;14738;42.668;23.250;2023-08-24T08:58:55;49011.72;;;-141.90;27.69
5298;BME280;14738;42.668;23.250;2023-08-24T09:01:22;48946.19;;;-141.90;27.63
5298;BME280;14738;42.668;23.250;2023-08-24T09:03:48;48970.03;;;-141.90;28.26
5298;BME280;14738;42.668;23.250;2023-08-24T09:06:14;48987.91;;;-141.90;27.62
5298;BME280;14738;42.668;23.250;2023-08-24T09:08:40;48999.81;;;-141.90;27.74
5298;BME280;14738;42.668;23.250;2023-08-24T09:11:05;49005.78;;;-141.90;27.77
5298;BME280;14738;42.668;23.250;2023-08-24T09:13:33;49009.75;;;-141.90;27.52
5298;BME280;14738;42.668;23.250;2023-08-24T09:16:08;49035.56;;;-141.90;27.27
5298;BME280;14738;42.668;23.250;2023-08-24T09:18:36;49037.53;;;-141.90;26.96
5298;BME280;14738;42.668;23.250;2023-08-24T09:21:09;49017.69;;;-141.90;27.55
5298;BME280;14738;42.668;23.250;2023-08-24T09:23:35;49031.59;;;-141.90;27.19
5298;BME280;14738;42.668;23.250;2023-08-24T09:26:00;49059.38;;;-141.90;26.48
5298;BME280;14738;42.668;23.250;2023-08-24T09:28:26;49037.53;;;-141.90;26.44
5298;BME280;14738;42.668;23.250;2023-08-24T09:30:53;48989.88;;;-141.90;27.79
5298;BME280;14738;42.668;23.250;2023-08-24T09:33:21;49003.78;;;-141.90;26.79
5298;BME280;14738;42.668;23.250;2023-08-24T09:35:53;49071.28;;;-141.90;25.85
5298;BME280;14738;42.668;23.250;2023-08-24T09:38:21;49059.38;;;-141.90;26.02
5298;BME280;14738;42.668;23.250;2023-08-24T09:40:50;49031.59;;;-141.90;26.36
5298;BME280;14738;42.668;23.250;2023-08-24T09:43:16;49029.59;;;-141.90;26.41
5298;BME280;14738;42.668;23.250;2023-08-24T09:45:55;49029.59;;;-141.90;26.28
5298;BME280;14738;42.668;23.250;2023-08-24T09:48:22;49057.41;;;-141.90;26.79
5298;BME280;14738;42.668;23.250;2023-08-24T09:50:49;49059.38;;;-141.90;25.70
5298;BME280;14738;42.668;23.250;2023-08-24T09:53:20;49077.25;;;-141.90;26.49
5298;BME280;14738;42.668;23.250;2023-08-24T09:55:58;49111.00;;;-141.90;25.78
5298;BME280;14738;42.668;23.250;2023-08-24T09:58:25;49116.97;;;-141.90;25.31
5298;BME280;14738;42.668;23.250;2023-08-24T10:00:51;49113.00;;;-141.90;24.48
5298;BME280;14738;42.668;23.250;2023-08-24T10:03:19;49170.56;;;-141.90;25.70
5298;BME280;14738;42.668;23.250;2023-08-24T10:05:51;49146.75;;;-141.90;24.66
5298;BME280;14738;42.668;23.250;2023-08-24T10:08:29;49114.97;;;-141.90;24.64
5298;BME280;14738;42.668;23.250;2023-08-24T10:10:58;49158.66;;;-141.90;24.37
5298;BME280;14738;42.668;23.250;2023-08-24T10:13:36;49156.66;;;-141.90;23.77
5298;BME280;14738;42.668;23.250;2023-08-24T10:16:05;49164.63;;;-141.90;23.76
5298;BME280;14738;42.668;23.250;2023-08-24T10:18:33;49101.06;;;-141.90;24.06
5298;BME280;14738;42.668;23.250;2023-08-24T10:20:59;49178.50;;;-141.90;23.91
5298;BME280;14738;42.668;23.250;2023-08-24T10:23:27;49176.53;;;-141.90;23.67
5298;BME280;14738;42.668;23.250;2023-08-24T10:25:55;49255.94;;;-141.90;24.19
5298;BME280;14738;42.668;23.250;2023-08-24T10:28:23;49184.47;;;-141.90;23.84
5298;BME280;14738;42.668;23.250;2023-08-24T10:30:51;49206.31;;;-141.90;23.36
5298;BME280;14738;42.668;23.250;2023-08-24T10:33:18;49170.56;;;-141.90;23.69
5298;BME280;14738;42.668;23.250;2023-08-24T10:35:44;49180.50;;;-141.90;23.21
5298;BME280;14738;42.668;23.250;2023-08-24T10:40:51;49208.31;;;-141.90;22.90
5298;BME280;14738;42.668;23.250;2023-08-24T10:43:16;49156.66;;;-141.90;22.69
5298;BME280;14738;42.668;23.250;2023-08-24T10:46:00;49116.97;;;-141.90;23.00
5298;BME280;14738;42.668;23.250;2023-08-24T10:48:28;49055.41;;;-141.90;23.02
5298;BME280;14738;42.668;23.250;2023-08-24T10:51:26;49089.16;;;-141.90;23.00
5298;BME280;14738;42.668;23.250;2023-08-24T10:54:00;49109.03;;;-141.90;23.24
5298;BME280;14738;42.668;23.250;2023-08-24T10:56:39;49091.16;;;-141.90;24.19
5298;BME280;14738;42.668;23.250;2023-08-24T11:01:43;48983.94;;;-141.90;26.12
5298;BME280;14738;42.668;23.250;2023-08-24T11:04:19;48954.16;;;-141.90;27.62
5298;BME280;14738;42.668;23.250;2023-08-24T11:06:57;48932.31;;;-141.90;28.15
5298;BME280;14738;42.668;23.250;2023-08-24T11:09:24;48932.31;;;-141.90;29.07
5298;BME280;14738;42.668;23.250;2023-08-24T11:12:00;48908.47;;;-141.90;29.20
5298;BME280;14738;42.668;23.250;2023-08-24T11:14:26;48914.44;;;-141.90;29.46
5298;BME280;14738;42.668;23.250;2023-08-24T11:16:52;48844.94;;;-141.90;28.74
5298;BME280;14738;42.668;23.250;2023-08-24T11:19:19;48872.75;;;-141.90;28.53
5298;BME280;14738;42.668;23.250;2023-08-24T11:21:46;48886.63;;;-141.90;28.46
5298;BME280;14738;42.668;23.250;2023-08-24T11:24:15;48878.69;;;-141.90;28.20
5298;BME280;14738;42.668;23.250;2023-08-24T11:26:48;48831.03;;;-141.90;27.72
5298;BME280;14738;42.668;23.250;2023-08-24T11:29:14;48805.25;;;-141.90;28.48
5298;BME280;14738;42.668;23.250;2023-08-24T11:31:41;48819.13;;;-141.90;28.40
5298;BME280;14738;42.668;23.250;2023-08-24T11:34:07;48831.03;;;-141.90;29.14
5298;BME280;14738;42.668;23.250;2023-08-24T11:36:48;48839.00;;;-141.90;29.76
5298;BME280;14738;42.668;23.250;2023-08-24T11:39:18;48837.00;;;-141.90;28.66
5298;BME280;14738;42.668;23.250;2023-08-24T11:42:04;48811.19;;;-141.90;28.86
5298;BME280;14738;42.668;23.250;2023-08-24T11:44:44;48827.06;;;-141.90;29.15
5298;BME280;14738;42.668;23.250;2023-08-24T11:47:11;48829.06;;;-141.90;29.08
5298;BME280;14738;42.668;23.250;2023-08-24T11:49:37;48866.78;;;-141.90;27.70
5298;BME280;14738;42.668;23.250;2023-08-24T11:52:02;48858.84;;;-141.90;27.89
5298;BME280;14738;42.668;23.250;2023-08-24T11:54:28;48848.91;;;-141.90;28.17
5298;BME280;14738;42.668;23.250;2023-08-24T11:56:53;48850.91;;;-141.90;28.03
5298;BME280;14738;42.668;23.250;2023-08-24T11:59:19;48842.97;;;-141.90;27.62
5298;BME280;14738;42.668;23.250;2023-08-24T12:01:45;48852.88;;;-141.90;28.90
5298;BME280;14738;42.668;23.250;2023-08-24T12:04:12;48856.84;;;-141.90;28.79
5298;BME280;14738;42.668;23.250;2023-08-24T12:06:37;48827.06;;;-141.90;28.41
5298;BME280;14738;42.668;23.250;2023-08-24T12:09:05;48840.97;;;-141.90;29.58
5298;BME280;14738;42.668;23.250;2023-08-24T12:11:35;48874.72;;;-141.90;27.71
5298;BME280;14738;42.668;23.250;2023-08-24T12:14:01;48848.91;;;-141.90;27.45
5298;BME280;14738;42.668;23.250;2023-08-24T12:16:26;48866.78;;;-141.90;27.23
5298;BME280;14738;42.668;23.250;2023-08-24T12:18:56;48850.91;;;-141.90;27.01
5298;BME280;14738;42.668;23.250;2023-08-24T12:21:24;48910.47;;;-141.90;26.92
5298;BME280;14738;42.668;23.250;2023-08-24T12:26:22;48876.72;;;-141.90;28.05
5298;BME280;14738;42.668;23.250;2023-08-24T12:28:51;48894.59;;;-141.90;28.13
5298;BME280;14738;42.668;23.250;2023-08-24T12:31:20;48856.84;;;-141.90;27.57
5298;BME280;14738;42.668;23.250;2023-08-24T12:33:45;48900.53;;;-141.90;27.71
5298;BME280;14738;42.668;23.250;2023-08-24T12:36:11;48922.38;;;-141.90;27.25
5298;BME280;14738;42.668;23.250;2023-08-24T12:38:37;48934.28;;;-141.90;27.20
5298;BME280;14738;42.668;23.250;2023-08-24T12:41:02;48942.22;;;-141.90;26.70
5298;BME280;14738;42.668;23.250;2023-08-24T12:43:28;48926.34;;;-141.90;26.26
5298;BME280;14738;42.668;23.250;2023-08-24T12:45:53;48914.44;;;-141.90;26.71
5298;BME280;14738;42.668;23.250;2023-08-24T12:48:19;48968.03;;;-141.90;26.79
5298;BME280;14738;42.668;23.250;2023-08-24T12:50:44;48898.56;;;-141.90;26.76
5298;BME280;14738;42.668;23.250;2023-08-24T12:53:09;48906.50;;;-141.90;27.60